createdAt,value
2016-08-29T00:00:45.094Z,0
2016-08-29T00:01:45.222Z,0
2016-08-29T00:02:43.738Z,0
2016-08-29T00:03:45.519Z,0
2016-08-29T00:04:45.699Z,0
2016-08-29T00:05:45.750Z,0
2016-08-29T00:06:45.395Z,0
2016-08-29T00:07:45.726Z,0
2016-08-29T00:08:45.233Z,0
2016-08-29T00:09:45.111Z,0
2016-08-29T00:10:45.595Z,0
2016-08-29T00:11:45.448Z,0
2016-08-29T00:12:45.502Z,0
2016-08-29T00:13:45.430Z,0
2016-08-29T00:14:45.538Z,0
2016-08-29T00:15:45.044Z,0
2016-08-29T00:16:44.872Z,0
2016-08-29T00:17:45.424Z,0
2016-08-29T00:18:45.473Z,0
2016-08-29T00:19:44.520Z,0
2016-08-29T00:20:45.017Z,0
2016-08-29T00:21:44.890Z,0
2016-08-29T00:22:45.128Z,0
2016-08-29T00:23:43.881Z,0
2016-08-29T00:24:44.569Z,0
2016-08-29T00:25:45.070Z,0
2016-08-29T00:26:44.697Z,0
2016-08-29T00:27:44.868Z,0
2016-08-29T00:28:44.961Z,0
2016-08-29T00:29:44.922Z,0
2016-08-29T00:30:45.083Z,0
2016-08-29T00:31:44.261Z,0
2016-08-29T00:32:45.057Z,0
2016-08-29T00:33:43.163Z,0
2016-08-29T00:34:44.870Z,0
2016-08-29T00:35:43.745Z,0
2016-08-29T00:36:44.665Z,0
2016-08-29T00:37:44.646Z,0
2016-08-29T00:38:44.098Z,0
2016-08-29T00:39:44.689Z,0
2016-08-29T00:40:43.229Z,0
2016-08-29T00:41:44.335Z,0
2016-08-29T00:42:44.178Z,0
2016-08-29T00:43:44.450Z,0
2016-08-29T00:44:43.887Z,0
2016-08-29T00:45:43.900Z,0
2016-08-29T00:46:44.222Z,0
2016-08-29T00:47:42.981Z,0
2016-08-29T00:48:44.272Z,0
2016-08-29T00:49:44.123Z,0
2016-08-29T00:50:44.322Z,0
2016-08-29T00:51:43.447Z,0
2016-08-29T00:52:44.084Z,0
2016-08-29T00:53:44.228Z,0
2016-08-29T00:54:43.190Z,0
2016-08-29T00:55:43.010Z,0
2016-08-29T00:56:44.088Z,0
2016-08-29T00:57:43.769Z,0
2016-08-29T00:58:43.716Z,0
2016-08-29T00:59:43.979Z,0
2016-08-29T01:00:44.158Z,0
2016-08-29T01:01:43.501Z,0
2016-08-29T01:02:42.989Z,0
2016-08-29T01:03:42.473Z,0
2016-08-29T01:04:43.714Z,0
2016-08-29T01:05:43.692Z,0
2016-08-29T01:06:43.083Z,0
2016-08-29T01:07:43.861Z,0
2016-08-29T01:08:42.494Z,0
2016-08-29T01:09:56.082Z,0
2016-08-29T01:10:43.678Z,0
2016-08-29T01:11:43.661Z,0
2016-08-29T01:12:43.630Z,0
2016-08-29T01:13:43.547Z,0
2016-08-29T01:14:44.118Z,0
2016-08-29T01:15:43.066Z,0
2016-08-29T01:16:42.158Z,0
2016-08-29T01:17:43.597Z,0
2016-08-29T01:18:43.588Z,0
2016-08-29T01:19:43.331Z,0
2016-08-29T01:20:43.092Z,0
2016-08-29T01:21:43.451Z,0
2016-08-29T01:22:42.933Z,0
2016-08-29T01:23:42.918Z,0
2016-08-29T01:24:43.135Z,0
2016-08-29T01:25:43.320Z,0
2016-08-29T01:26:43.004Z,0
2016-08-29T01:27:42.976Z,0
2016-08-29T01:28:42.502Z,0
2016-08-29T01:29:42.302Z,0
2016-08-29T01:30:42.111Z,0
2016-08-29T01:31:42.231Z,0
2016-08-29T01:32:42.756Z,0
2016-08-29T01:33:42.797Z,0
2016-08-29T01:34:42.227Z,0
2016-08-29T01:35:43.006Z,0
2016-08-29T01:36:42.908Z,0
2016-08-29T01:37:42.478Z,0
2016-08-29T01:38:42.338Z,0
2016-08-29T01:39:42.590Z,0
2016-08-29T01:40:42.743Z,0
2016-08-29T01:41:42.764Z,0
2016-08-29T01:42:42.649Z,0
2016-08-29T01:43:42.615Z,0
2016-08-29T01:44:42.250Z,0
2016-08-29T01:45:41.720Z,0
2016-08-29T01:46:42.547Z,0
2016-08-29T01:47:41.085Z,0
2016-08-29T01:48:42.362Z,0
2016-08-29T01:49:42.479Z,0
2016-08-29T01:50:42.311Z,0
2016-08-29T01:51:42.276Z,0
2016-08-29T01:52:41.986Z,0
2016-08-29T01:53:42.486Z,0
2016-08-29T01:54:42.077Z,0
2016-08-29T01:55:42.277Z,0
2016-08-29T01:56:42.093Z,0
2016-08-29T01:57:42.252Z,0
2016-08-29T01:58:41.402Z,0
2016-08-29T01:59:41.031Z,0
2016-08-29T02:00:42.013Z,0
2016-08-29T02:01:42.490Z,0
2016-08-29T02:02:42.141Z,0
2016-08-29T02:03:41.913Z,0
2016-08-29T02:04:42.188Z,0
2016-08-29T02:05:41.611Z,0
2016-08-29T02:06:41.727Z,0
2016-08-29T02:07:42.183Z,0
2016-08-29T02:08:40.017Z,0
2016-08-29T02:09:39.303Z,0
2016-08-29T02:10:39.961Z,0
2016-08-29T02:11:39.929Z,0
2016-08-29T02:12:39.907Z,0
2016-08-29T02:13:39.873Z,0
2016-08-29T02:14:39.841Z,0
2016-08-29T02:15:39.814Z,0
2016-08-29T02:16:39.782Z,0
2016-08-29T02:17:39.051Z,0
2016-08-29T02:18:39.726Z,0
2016-08-29T02:19:39.694Z,0
2016-08-29T02:20:39.659Z,0
2016-08-29T02:21:38.936Z,0
2016-08-29T02:22:38.908Z,0
2016-08-29T02:23:38.177Z,0
2016-08-29T02:24:39.544Z,0
2016-08-29T02:25:39.515Z,0
2016-08-29T02:26:39.480Z,0
2016-08-29T02:27:38.747Z,0
2016-08-29T02:28:38.726Z,0
2016-08-29T02:29:38.693Z,0
2016-08-29T02:30:37.989Z,0
2016-08-29T02:31:39.330Z,0
2016-08-29T02:32:39.298Z,0
2016-08-29T02:33:37.878Z,0
2016-08-29T02:34:38.555Z,0
2016-08-29T02:35:39.205Z,0
2016-08-29T02:36:39.183Z,0
2016-08-29T02:37:39.151Z,0
2016-08-29T02:38:39.122Z,0
2016-08-29T02:39:39.099Z,0
2016-08-29T02:40:39.061Z,0
2016-08-29T02:41:37.638Z,0
2016-08-29T02:42:38.304Z,0
2016-08-29T02:43:38.979Z,0
2016-08-29T02:44:38.256Z,0
2016-08-29T02:45:38.914Z,0
2016-08-29T02:46:38.883Z,0
2016-08-29T02:47:38.860Z,0
2016-08-29T02:48:38.833Z,0
2016-08-29T02:49:38.096Z,0
2016-08-29T02:50:38.765Z,0
2016-08-29T02:51:38.046Z,0
2016-08-29T02:52:37.308Z,0
2016-08-29T02:53:38.678Z,0
2016-08-29T02:54:38.642Z,0
2016-08-29T02:55:37.916Z,0
2016-08-29T02:56:38.582Z,0
2016-08-29T02:57:38.552Z,0
2016-08-29T02:58:37.825Z,0
2016-08-29T02:59:38.490Z,0
2016-08-29T03:00:37.763Z,0
2016-08-29T03:01:38.446Z,0
2016-08-29T03:02:38.398Z,0
2016-08-29T03:03:38.370Z,0
2016-08-29T03:04:38.348Z,0
2016-08-29T03:05:37.610Z,0
2016-08-29T03:06:37.581Z,0
2016-08-29T03:07:37.557Z,0
2016-08-29T03:08:38.224Z,0
2016-08-29T03:09:37.495Z,0
2016-08-29T03:10:36.072Z,0
2016-08-29T03:11:38.133Z,0
2016-08-29T03:12:37.415Z,0
2016-08-29T03:13:37.377Z,0
2016-08-29T03:14:38.047Z,0
2016-08-29T03:15:38.009Z,0
2016-08-29T03:16:37.975Z,0
2016-08-29T03:17:37.955Z,0
2016-08-29T03:18:36.533Z,0
2016-08-29T03:19:37.199Z,0
2016-08-29T03:20:37.864Z,0
2016-08-29T03:21:37.856Z,0
2016-08-29T03:22:37.118Z,0
2016-08-29T03:23:37.074Z,0
2016-08-29T03:24:37.044Z,0
2016-08-29T03:25:36.320Z,0
2016-08-29T03:26:37.681Z,0
2016-08-29T03:27:37.657Z,0
2016-08-29T03:28:36.930Z,0
2016-08-29T03:29:36.204Z,0
2016-08-29T03:30:36.868Z,0
2016-08-29T03:31:37.533Z,0
2016-08-29T03:32:36.803Z,0
2016-08-29T03:33:36.082Z,0
2016-08-29T03:34:36.751Z,0
2016-08-29T03:35:37.411Z,0
2016-08-29T03:36:36.682Z,0
2016-08-29T03:37:36.659Z,0
2016-08-29T03:38:36.628Z,0
2016-08-29T03:39:37.299Z,0
2016-08-29T03:40:36.578Z,0
2016-08-29T03:41:36.540Z,0
2016-08-29T03:42:37.202Z,0
2016-08-29T03:43:35.794Z,0
2016-08-29T03:44:36.456Z,0
2016-08-29T03:45:36.421Z,0
2016-08-29T03:46:35.697Z,0
2016-08-29T03:47:37.058Z,0
2016-08-29T03:48:36.328Z,0
2016-08-29T03:49:36.994Z,0
2016-08-29T03:50:36.275Z,0
2016-08-29T03:51:36.244Z,0
2016-08-29T03:52:36.906Z,0
2016-08-29T03:53:36.891Z,0
2016-08-29T03:54:35.454Z,0
2016-08-29T03:55:36.134Z,0
2016-08-29T03:56:36.793Z,0
2016-08-29T03:57:36.760Z,0
2016-08-29T03:58:34.648Z,0
2016-08-29T03:59:36.690Z,0
2016-08-29T04:00:36.668Z,0
2016-08-29T04:01:36.633Z,0
2016-08-29T04:02:36.601Z,0
2016-08-29T04:03:35.878Z,0
2016-08-29T04:04:36.559Z,0
2016-08-29T04:05:35.814Z,0
2016-08-29T04:06:36.484Z,0
2016-08-29T04:07:36.452Z,0
2016-08-29T04:08:35.723Z,0
2016-08-29T04:09:35.692Z,0
2016-08-29T04:10:35.672Z,0
2016-08-29T04:11:34.941Z,0
2016-08-29T04:12:36.303Z,0
2016-08-29T04:13:36.266Z,0
2016-08-29T04:14:35.558Z,0
2016-08-29T04:15:36.213Z,0
2016-08-29T04:16:35.479Z,0
2016-08-29T04:17:36.149Z,0
2016-08-29T04:18:36.119Z,0
2016-08-29T04:19:35.395Z,0
2016-08-29T04:20:36.059Z,4
2016-08-29T04:21:36.030Z,4
2016-08-29T04:22:35.999Z,4
2016-08-29T04:23:35.965Z,8
2016-08-29T04:24:35.935Z,4
2016-08-29T04:25:35.916Z,8
2016-08-29T04:26:35.877Z,8
2016-08-29T04:27:35.851Z,8
2016-08-29T04:28:35.820Z,12
2016-08-29T04:29:35.103Z,12
2016-08-29T04:30:35.062Z,16
2016-08-29T04:31:35.730Z,16
2016-08-29T04:32:35.705Z,20
2016-08-29T04:33:35.669Z,20
2016-08-29T04:34:34.946Z,20
2016-08-29T04:35:35.607Z,20
2016-08-29T04:36:34.189Z,24
2016-08-29T04:37:35.557Z,28
2016-08-29T04:38:34.821Z,32
2016-08-29T04:39:35.493Z,44
2016-08-29T04:40:34.763Z,56
2016-08-29T04:41:35.426Z,60
2016-08-29T04:42:34.696Z,60
2016-08-29T04:43:35.365Z,52
2016-08-29T04:44:34.638Z,48
2016-08-29T04:45:34.631Z,52
2016-08-29T04:46:35.290Z,60
2016-08-29T04:47:35.258Z,68
2016-08-29T04:48:35.222Z,76
2016-08-29T04:49:35.190Z,80
2016-08-29T04:50:33.771Z,80
2016-08-29T04:51:33.738Z,72
2016-08-29T04:52:35.100Z,64
2016-08-29T04:53:34.373Z,56
2016-08-29T04:54:35.045Z,56
2016-08-29T04:55:35.012Z,60
2016-08-29T04:56:35.002Z,56
2016-08-29T04:57:34.953Z,60
2016-08-29T04:58:34.921Z,64
2016-08-29T04:59:34.893Z,68
2016-08-29T05:00:35.078Z,76
2016-08-29T05:01:34.834Z,84
2016-08-29T05:02:34.804Z,104
2016-08-29T05:03:34.772Z,140
2016-08-29T05:04:34.042Z,192
2016-08-29T05:05:34.018Z,244
2016-08-29T05:06:34.684Z,280
2016-08-29T05:07:34.656Z,292
2016-08-29T05:08:33.927Z,296
2016-08-29T05:09:34.591Z,304
2016-08-29T05:10:34.559Z,356
2016-08-29T05:11:33.834Z,508
2016-08-29T05:12:33.807Z,696
2016-08-29T05:13:34.476Z,864
2016-08-29T05:14:34.446Z,960
2016-08-29T05:15:34.417Z,940
2016-08-29T05:16:34.392Z,840
2016-08-29T05:17:34.354Z,736
2016-08-29T05:18:34.317Z,676
2016-08-29T05:19:33.602Z,644
2016-08-29T05:20:34.259Z,604
2016-08-29T05:21:33.532Z,572
2016-08-29T05:22:33.506Z,532
2016-08-29T05:23:33.479Z,492
2016-08-29T05:24:34.144Z,460
2016-08-29T05:25:33.411Z,440
2016-08-29T05:26:33.388Z,436
2016-08-29T05:27:33.354Z,460
2016-08-29T05:28:33.324Z,488
2016-08-29T05:29:33.301Z,540
2016-08-29T05:30:33.976Z,564
2016-08-29T05:31:33.239Z,636
2016-08-29T05:32:33.202Z,700
2016-08-29T05:33:33.196Z,752
2016-08-29T05:34:33.159Z,740
2016-08-29T05:35:33.113Z,624
2016-08-29T05:36:33.084Z,548
2016-08-29T05:37:33.753Z,480
2016-08-29T05:38:33.746Z,404
2016-08-29T05:39:33.703Z,360
2016-08-29T05:40:33.683Z,328
2016-08-29T05:41:33.635Z,300
2016-08-29T05:42:32.908Z,264
2016-08-29T05:43:32.878Z,236
2016-08-29T05:44:32.150Z,224
2016-08-29T05:45:32.121Z,212
2016-08-29T05:46:32.820Z,208
2016-08-29T05:47:33.461Z,224
2016-08-29T05:48:33.423Z,252
2016-08-29T05:49:31.999Z,288
2016-08-29T05:50:32.686Z,316
2016-08-29T05:51:32.637Z,332
2016-08-29T05:52:31.224Z,312
2016-08-29T05:53:31.888Z,276
2016-08-29T05:54:32.553Z,268
2016-08-29T05:55:33.212Z,264
2016-08-29T05:56:32.495Z,268
2016-08-29T05:57:33.163Z,264
2016-08-29T05:58:32.431Z,260
2016-08-29T05:59:32.408Z,268
2016-08-29T06:00:32.366Z,304
2016-08-29T06:01:32.332Z,336
2016-08-29T06:02:31.607Z,360
2016-08-29T06:03:32.281Z,396
2016-08-29T06:04:32.252Z,432
2016-08-29T06:05:32.913Z,484
2016-08-29T06:06:31.489Z,572
2016-08-29T06:07:31.473Z,612
2016-08-29T06:08:31.444Z,604
2016-08-29T06:09:32.102Z,652
2016-08-29T06:10:31.611Z,640
2016-08-29T06:11:32.053Z,536
2016-08-29T06:12:32.009Z,444
2016-08-29T06:13:31.976Z,428
2016-08-29T06:14:32.643Z,436
2016-08-29T06:15:31.917Z,444
2016-08-29T06:16:31.886Z,456
2016-08-29T06:17:32.547Z,480
2016-08-29T06:18:31.842Z,488
2016-08-29T06:19:31.793Z,492
2016-08-29T06:20:32.468Z,520
2016-08-29T06:21:32.431Z,572
2016-08-29T06:22:31.703Z,648
2016-08-29T06:23:30.981Z,712
2016-08-29T06:24:30.946Z,788
2016-08-29T06:25:31.612Z,836
2016-08-29T06:26:32.284Z,764
2016-08-29T06:27:30.860Z,680
2016-08-29T06:28:30.822Z,624
2016-08-29T06:29:31.505Z,580
2016-08-29T06:30:30.769Z,556
2016-08-29T06:31:31.442Z,584
2016-08-29T06:32:30.712Z,636
2016-08-29T06:33:30.681Z,692
2016-08-29T06:34:31.350Z,744
2016-08-29T06:35:32.013Z,784
2016-08-29T06:36:31.284Z,812
2016-08-29T06:37:30.557Z,856
2016-08-29T06:38:29.825Z,944
2016-08-29T06:39:31.186Z,1232
2016-08-29T06:40:33.361Z,1548
2016-08-29T06:41:31.147Z,1864
2016-08-29T06:42:30.408Z,2132
2016-08-29T06:43:31.078Z,2308
2016-08-29T06:44:30.347Z,2428
2016-08-29T06:45:31.714Z,2596
2016-08-29T06:46:30.282Z,2780
2016-08-29T06:47:30.257Z,2924
2016-08-29T06:48:30.925Z,3156
2016-08-29T06:49:30.893Z,3536
2016-08-29T06:50:31.563Z,4232
2016-08-29T06:51:30.150Z,4680
2016-08-29T06:52:30.819Z,4760
2016-08-29T06:53:31.476Z,4928
2016-08-29T06:54:30.756Z,5012
2016-08-29T06:55:30.015Z,4908
2016-08-29T06:56:30.699Z,4616
2016-08-29T06:57:30.653Z,4720
2016-08-29T06:58:31.329Z,4840
2016-08-29T06:59:31.302Z,4916
2016-08-29T07:00:31.262Z,4640
2016-08-29T07:01:31.233Z,4184
2016-08-29T07:02:29.826Z,3284
2016-08-29T07:03:30.476Z,2264
2016-08-29T07:04:30.444Z,1428
2016-08-29T07:05:29.724Z,868
2016-08-29T07:06:31.097Z,564
2016-08-29T07:07:29.658Z,428
2016-08-29T07:08:30.334Z,364
2016-08-29T07:09:30.300Z,356
2016-08-29T07:10:31.208Z,368
2016-08-29T07:11:30.936Z,428
2016-08-29T07:12:30.216Z,544
2016-08-29T07:13:30.889Z,764
2016-08-29T07:14:30.160Z,960
2016-08-29T07:15:30.826Z,1084
2016-08-29T07:16:30.105Z,1172
2016-08-29T07:17:30.065Z,1232
2016-08-29T07:18:30.050Z,1244
2016-08-29T07:19:30.706Z,1240
2016-08-29T07:20:29.452Z,1252
2016-08-29T07:21:30.018Z,1328
2016-08-29T07:22:29.927Z,1444
2016-08-29T07:23:29.884Z,1596
2016-08-29T07:24:29.857Z,1796
2016-08-29T07:25:29.135Z,2076
2016-08-29T07:26:30.507Z,2416
2016-08-29T07:27:29.768Z,2692
2016-08-29T07:28:30.429Z,3044
2016-08-29T07:29:30.400Z,3436
2016-08-29T07:30:29.724Z,3792
2016-08-29T07:31:29.646Z,4088
2016-08-29T07:32:28.919Z,4512
2016-08-29T07:33:29.585Z,4900
2016-08-29T07:34:29.558Z,5316
2016-08-29T07:35:28.833Z,6016
2016-08-29T07:36:29.516Z,6708
2016-08-29T07:37:28.772Z,7140
2016-08-29T07:38:28.043Z,6972
2016-08-29T07:39:29.415Z,7684
2016-08-29T07:40:29.382Z,9068
2016-08-29T07:41:29.853Z,10008
2016-08-29T07:42:29.326Z,10484
2016-08-29T07:43:28.598Z,10120
2016-08-29T07:44:29.272Z,9996
2016-08-29T07:45:29.261Z,9520
2016-08-29T07:46:28.505Z,8268
2016-08-29T07:47:29.174Z,7068
2016-08-29T07:48:29.847Z,6864
2016-08-29T07:49:29.816Z,6252
2016-08-29T07:50:28.397Z,5620
2016-08-29T07:51:29.759Z,5440
2016-08-29T07:52:29.733Z,5636
2016-08-29T07:53:29.703Z,6188
2016-08-29T07:54:28.974Z,7036
2016-08-29T07:55:28.375Z,7600
2016-08-29T07:56:27.520Z,7564
2016-08-29T07:57:28.887Z,7336
2016-08-29T07:58:28.856Z,7136
2016-08-29T07:59:28.836Z,7240
2016-08-29T08:00:29.498Z,7744
2016-08-29T08:01:28.079Z,9000
2016-08-29T08:02:28.044Z,9208
2016-08-29T08:03:28.717Z,8788
2016-08-29T08:04:29.383Z,7920
2016-08-29T08:05:28.138Z,7680
2016-08-29T08:06:28.633Z,7612
2016-08-29T08:07:27.915Z,7300
2016-08-29T08:08:27.877Z,6684
2016-08-29T08:09:29.240Z,6096
2016-08-29T08:10:28.510Z,5764
2016-08-29T08:11:28.487Z,5304
2016-08-29T08:12:28.467Z,4996
2016-08-29T08:13:29.130Z,4644
2016-08-29T08:14:29.105Z,4384
2016-08-29T08:15:28.381Z,4160
2016-08-29T08:16:28.346Z,4148
2016-08-29T08:17:29.014Z,4032
2016-08-29T08:18:28.978Z,4004
2016-08-29T08:19:28.269Z,4172
2016-08-29T08:20:28.923Z,4168
2016-08-29T08:21:28.196Z,4076
2016-08-29T08:22:28.876Z,3736
2016-08-29T08:23:28.833Z,3480
2016-08-29T08:24:27.426Z,3088
2016-08-29T08:25:28.793Z,2752
2016-08-29T08:26:28.751Z,2464
2016-08-29T08:27:26.635Z,2320
2016-08-29T08:28:28.726Z,2532
2016-08-29T08:29:26.574Z,2756
2016-08-29T08:30:27.248Z,2796
2016-08-29T08:31:27.918Z,2592
2016-08-29T08:32:28.629Z,2300
2016-08-29T08:33:27.153Z,2000
2016-08-29T08:34:27.821Z,1840
2016-08-29T08:35:27.166Z,2028
2016-08-29T08:36:27.071Z,2312
2016-08-29T08:37:27.742Z,2380
2016-08-29T08:38:27.704Z,2356
2016-08-29T08:39:28.371Z,2472
2016-08-29T08:40:27.758Z,2660
2016-08-29T08:41:28.317Z,2688
2016-08-29T08:42:28.283Z,2512
2016-08-29T08:43:27.561Z,2440
2016-08-29T08:44:28.232Z,2492
2016-08-29T08:45:27.497Z,2664
2016-08-29T08:46:28.182Z,2872
2016-08-29T08:47:28.141Z,2860
2016-08-29T08:48:26.709Z,3024
2016-08-29T08:49:27.396Z,4012
2016-08-29T08:50:27.353Z,4180
2016-08-29T08:51:28.013Z,4184
2016-08-29T08:52:26.621Z,4052
2016-08-29T08:53:26.574Z,4068
2016-08-29T08:54:26.549Z,3740
2016-08-29T08:55:27.207Z,3920
2016-08-29T08:56:27.177Z,4368
2016-08-29T08:57:27.148Z,4912
2016-08-29T08:58:27.115Z,5420
2016-08-29T08:59:27.790Z,6124
2016-08-29T09:00:27.056Z,7180
2016-08-29T09:01:27.024Z,8824
2016-08-29T09:02:27.011Z,10580
2016-08-29T09:03:26.971Z,12228
2016-08-29T09:04:26.938Z,13996
2016-08-29T09:05:25.520Z,15476
2016-08-29T09:06:26.185Z,18656
2016-08-29T09:07:27.543Z,25504
2016-08-29T09:08:26.818Z,29376
2016-08-29T09:09:26.098Z,78144
2016-08-29T09:10:26.067Z,43072
2016-08-29T09:11:27.452Z,39520
2016-08-29T09:12:26.718Z,40800
2016-08-29T09:13:25.977Z,64704
2016-08-29T09:14:25.950Z,57344
2016-08-29T09:15:26.630Z,48512
2016-08-29T09:16:26.596Z,39168
2016-08-29T09:17:26.571Z,25376
2016-08-29T09:18:27.232Z,20608
2016-08-29T09:19:25.813Z,17760
2016-08-29T09:20:25.791Z,16792
2016-08-29T09:21:26.464Z,14072
2016-08-29T09:22:26.434Z,15312
2016-08-29T09:23:26.403Z,17472
2016-08-29T09:24:27.077Z,17920
2016-08-29T09:25:26.690Z,22304
2016-08-29T09:26:26.324Z,19264
2016-08-29T09:27:26.301Z,16980
2016-08-29T09:28:25.574Z,17728
2016-08-29T09:29:26.247Z,18304
2016-08-29T09:30:26.216Z,16808
2016-08-29T09:31:26.188Z,14888
2016-08-29T09:32:26.174Z,13340
2016-08-29T09:33:27.113Z,11772
2016-08-29T09:34:26.110Z,10476
2016-08-29T09:35:26.095Z,10004
2016-08-29T09:36:25.363Z,9616
2016-08-29T09:37:25.338Z,9548
2016-08-29T09:38:25.308Z,9576
2016-08-29T09:39:26.680Z,9376
2016-08-29T09:40:25.949Z,9172
2016-08-29T09:41:26.629Z,8864
2016-08-29T09:42:25.907Z,8848
2016-08-29T09:43:25.867Z,9292
2016-08-29T09:44:25.856Z,10136
2016-08-29T09:45:25.819Z,11440
2016-08-29T09:46:26.485Z,12576
2016-08-29T09:47:25.066Z,12420
2016-08-29T09:48:26.430Z,11208
2016-08-29T09:49:25.003Z,9716
2016-08-29T09:50:25.680Z,8460
2016-08-29T09:51:25.641Z,7476
2016-08-29T09:52:25.637Z,6584
2016-08-29T09:53:24.203Z,5772
2016-08-29T09:54:25.566Z,4896
2016-08-29T09:55:24.837Z,4012
2016-08-29T09:56:24.813Z,3376
2016-08-29T09:57:25.487Z,3068
2016-08-29T09:58:25.466Z,2908
2016-08-29T09:59:25.419Z,2848
2016-08-29T10:00:25.396Z,2932
2016-08-29T10:01:25.374Z,3336
2016-08-29T10:02:25.348Z,3804
2016-08-29T10:03:24.608Z,3872
2016-08-29T10:04:25.278Z,3736
2016-08-29T10:05:24.558Z,3672
2016-08-29T10:06:25.928Z,3812
2016-08-29T10:07:25.195Z,3900
2016-08-29T10:08:25.175Z,3892
2016-08-29T10:09:25.835Z,3908
2016-08-29T10:10:23.718Z,3976
2016-08-29T10:11:25.777Z,4060
2016-08-29T10:12:24.364Z,4216
2016-08-29T10:13:25.021Z,4476
2016-08-29T10:14:24.996Z,4756
2016-08-29T10:15:24.965Z,5216
2016-08-29T10:16:24.935Z,5844
2016-08-29T10:17:24.233Z,6264
2016-08-29T10:18:25.582Z,6680
2016-08-29T10:19:24.861Z,6920
2016-08-29T10:20:24.933Z,6840
2016-08-29T10:21:25.487Z,6636
2016-08-29T10:22:24.066Z,6696
2016-08-29T10:23:24.039Z,7236
2016-08-29T10:24:24.702Z,7424
2016-08-29T10:25:25.383Z,7124
2016-08-29T10:26:23.953Z,6616
2016-08-29T10:27:23.916Z,5728
2016-08-29T10:28:24.587Z,5456
2016-08-29T10:29:25.274Z,5112
2016-08-29T10:30:23.138Z,4868
2016-08-29T10:31:25.196Z,4360
2016-08-29T10:32:25.180Z,3844
2016-08-29T10:33:23.741Z,3392
2016-08-29T10:34:23.025Z,3212
2016-08-29T10:35:22.997Z,3348
2016-08-29T10:36:25.055Z,3616
2016-08-29T10:37:24.318Z,4096
2016-08-29T10:38:24.296Z,4404
2016-08-29T10:39:24.975Z,4696
2016-08-29T10:40:23.534Z,5004
2016-08-29T10:41:24.906Z,5628
2016-08-29T10:42:24.177Z,5756
2016-08-29T10:43:23.452Z,5452
2016-08-29T10:44:24.812Z,4804
2016-08-29T10:45:24.095Z,4304
2016-08-29T10:46:24.751Z,3936
2016-08-29T10:47:24.744Z,3808
2016-08-29T10:48:23.997Z,3780
2016-08-29T10:49:23.283Z,3272
2016-08-29T10:50:24.090Z,3388
2016-08-29T10:51:24.602Z,4100
2016-08-29T10:52:23.185Z,4192
2016-08-29T10:53:24.546Z,4044
2016-08-29T10:54:23.125Z,3892
2016-08-29T10:55:24.500Z,3712
2016-08-29T10:56:23.769Z,3584
2016-08-29T10:57:23.734Z,3548
2016-08-29T10:58:23.010Z,3524
2016-08-29T10:59:23.669Z,3312
2016-08-29T11:00:23.769Z,3100
2016-08-29T11:01:24.314Z,3032
2016-08-29T11:02:23.584Z,3080
2016-08-29T11:03:22.164Z,3268
2016-08-29T11:04:22.834Z,3660
2016-08-29T11:05:24.191Z,4308
2016-08-29T11:06:24.152Z,5148
2016-08-29T11:07:24.124Z,5916
2016-08-29T11:08:23.409Z,6784
2016-08-29T11:09:23.373Z,7548
2016-08-29T11:10:22.652Z,7800
2016-08-29T11:11:22.618Z,7372
2016-08-29T11:12:23.278Z,6720
2016-08-29T11:13:23.962Z,6580
2016-08-29T11:14:23.919Z,6892
2016-08-29T11:15:23.195Z,7544
2016-08-29T11:16:23.863Z,7580
2016-08-29T11:17:23.137Z,7192
2016-08-29T11:18:23.110Z,7076
2016-08-29T11:19:23.775Z,7408
2016-08-29T11:20:23.762Z,8440
2016-08-29T11:21:21.623Z,8672
2016-08-29T11:22:22.289Z,8724
2016-08-29T11:23:23.916Z,8716
2016-08-29T11:24:21.533Z,8844
2016-08-29T11:25:22.892Z,8060
2016-08-29T11:26:23.563Z,7836
2016-08-29T11:27:22.840Z,8628
2016-08-29T11:28:23.511Z,9464
2016-08-29T11:29:23.475Z,9444
2016-08-29T11:30:22.062Z,8880
2016-08-29T11:31:23.413Z,8444
2016-08-29T11:32:23.390Z,7732
2016-08-29T11:33:22.668Z,6964
2016-08-29T11:34:23.328Z,6632
2016-08-29T11:35:22.602Z,6308
2016-08-29T11:36:23.289Z,6160
2016-08-29T11:37:21.845Z,6376
2016-08-29T11:38:21.816Z,6652
2016-08-29T11:39:22.485Z,6824
2016-08-29T11:40:23.461Z,7052
2016-08-29T11:41:21.728Z,7820
2016-08-29T11:42:23.093Z,8644
2016-08-29T11:43:23.059Z,10396
2016-08-29T11:44:22.344Z,14924
2016-08-29T11:45:22.307Z,23616
2016-08-29T11:46:22.283Z,30080
2016-08-29T11:47:21.552Z,29440
2016-08-29T11:48:22.225Z,28032
2016-08-29T11:49:22.196Z,25888
2016-08-29T11:50:22.256Z,20992
2016-08-29T11:51:21.436Z,19200
2016-08-29T11:52:22.807Z,17824
2016-08-29T11:53:22.076Z,17888
2016-08-29T11:54:22.747Z,17984
2016-08-29T11:55:22.722Z,17856
2016-08-29T11:56:21.992Z,17952
2016-08-29T11:57:21.963Z,19776
2016-08-29T11:58:21.940Z,20128
2016-08-29T11:59:22.594Z,19520
2016-08-29T12:00:21.879Z,20288
2016-08-29T12:01:21.156Z,18016
2016-08-29T12:02:22.513Z,14892
2016-08-29T12:03:21.794Z,13672
2016-08-29T12:04:21.770Z,12964
2016-08-29T12:05:21.743Z,12676
2016-08-29T12:06:21.726Z,13244
2016-08-29T12:07:20.293Z,14564
2016-08-29T12:08:21.676Z,14904
2016-08-29T12:09:21.636Z,15384
2016-08-29T12:10:21.605Z,15556
2016-08-29T12:11:20.883Z,15044
2016-08-29T12:12:22.251Z,14680
2016-08-29T12:13:22.223Z,13336
2016-08-29T12:14:21.487Z,12104
2016-08-29T12:15:22.332Z,12684
2016-08-29T12:16:21.437Z,14244
2016-08-29T12:17:20.715Z,14216
2016-08-29T12:18:19.993Z,13828
2016-08-29T12:19:21.359Z,14952
2016-08-29T12:20:21.346Z,15728
2016-08-29T12:21:20.607Z,14924
2016-08-29T12:22:21.277Z,16144
2016-08-29T12:23:21.947Z,18496
2016-08-29T12:24:21.226Z,18272
2016-08-29T12:25:21.285Z,18688
2016-08-29T12:26:21.852Z,18272
2016-08-29T12:27:21.829Z,16160
2016-08-29T12:28:21.108Z,14900
2016-08-29T12:29:21.084Z,14920
2016-08-29T12:30:21.330Z,16124
2016-08-29T12:31:21.026Z,16320
2016-08-29T12:32:20.999Z,16480
2016-08-29T12:33:21.660Z,16664
2016-08-29T12:34:20.941Z,18688
2016-08-29T12:35:20.218Z,20640
2016-08-29T12:36:21.578Z,20832
2016-08-29T12:37:20.863Z,21376
2016-08-29T12:38:20.833Z,22496
2016-08-29T12:39:20.800Z,23648
2016-08-29T12:40:20.304Z,22592
2016-08-29T12:41:20.753Z,21376
2016-08-29T12:42:21.420Z,20352
2016-08-29T12:43:21.400Z,20096
2016-08-29T12:44:20.670Z,19776
2016-08-29T12:45:20.711Z,19168
2016-08-29T12:46:21.328Z,18880
2016-08-29T12:47:21.291Z,17760
2016-08-29T12:48:21.257Z,16872
2016-08-29T12:49:20.528Z,17312
2016-08-29T12:50:19.111Z,16604
2016-08-29T12:51:20.478Z,16488
2016-08-29T12:52:20.456Z,16416
2016-08-29T12:53:21.123Z,17088
2016-08-29T12:54:19.699Z,18304
2016-08-29T12:55:20.368Z,19936
2016-08-29T12:56:21.048Z,20512
2016-08-29T12:57:20.316Z,19904
2016-08-29T12:58:20.288Z,19136
2016-08-29T12:59:20.262Z,17536
2016-08-29T13:00:18.858Z,13772
2016-08-29T13:01:20.205Z,11816
2016-08-29T13:02:19.484Z,11428
2016-08-29T13:03:19.460Z,11544
2016-08-29T13:04:20.828Z,11088
2016-08-29T13:05:19.406Z,10932
2016-08-29T13:06:19.377Z,10776
2016-08-29T13:07:20.750Z,10232
2016-08-29T13:08:20.026Z,9904
2016-08-29T13:09:20.013Z,10096
2016-08-29T13:10:19.969Z,9312
2016-08-29T13:11:19.243Z,9124
2016-08-29T13:12:20.613Z,9524
2016-08-29T13:13:19.187Z,10772
2016-08-29T13:14:19.164Z,11836
2016-08-29T13:15:20.396Z,12704
2016-08-29T13:16:20.495Z,13112
2016-08-29T13:17:19.774Z,13388
2016-08-29T13:18:20.441Z,13032
2016-08-29T13:19:19.724Z,12624
2016-08-29T13:20:20.394Z,11544
2016-08-29T13:21:20.364Z,10888
2016-08-29T13:22:19.637Z,10432
2016-08-29T13:23:19.608Z,10192
2016-08-29T13:24:20.282Z,10328
2016-08-29T13:25:18.870Z,10616
2016-08-29T13:26:18.830Z,10876
2016-08-29T13:27:19.522Z,11128
2016-08-29T13:28:18.783Z,11960
2016-08-29T13:29:20.141Z,12736
2016-08-29T13:30:21.051Z,13784
2016-08-29T13:31:19.390Z,14688
2016-08-29T13:32:19.372Z,15436
2016-08-29T13:33:19.336Z,15020
2016-08-29T13:34:20.043Z,13712
2016-08-29T13:35:19.294Z,12432
2016-08-29T13:36:19.252Z,11428
2016-08-29T13:37:19.223Z,10740
2016-08-29T13:38:19.207Z,10816
2016-08-29T13:39:18.484Z,10740
2016-08-29T13:40:19.841Z,9712
2016-08-29T13:41:19.829Z,8880
2016-08-29T13:42:19.084Z,8356
2016-08-29T13:43:19.772Z,8100
2016-08-29T13:44:19.040Z,8304
2016-08-29T13:45:19.021Z,8252